Time;durP1;ratioP1;P1;durP2;ratioP2;P2;SDS_P1;SDS_P2;PMS_P1;PMS_P2;Temp;Humidity;BMP_temperature;BMP_pressure;BME280_temperature;BME280_humidity;BME280_pressure;Samples;Min_cycle;Max_cycle;Signal;HPM_P1;HPM_P2
2021/10/29 00:02:24;;;;;;;18.70;13.80;;;9.40;88.90;;;9.78;64.82;97491.56;4967967;28;20050;-44
2021/10/29 00:04:52;;;;;;;20.40;13.00;;;9.40;88.50;;;9.74;65.09;97488.38;4968896;28;20265;-45
2021/10/29 00:07:20;;;;;;;15.50;11.37;;;9.40;88.40;;;9.67;64.63;97487.34;4968767;28;20050;-44
2021/10/29 00:09:48;;;;;;;14.17;9.87;;;9.30;88.40;;;9.65;64.65;97486.66;4966510;28;20043;-45
2021/10/29 00:12:18;;;;;;;15.30;9.37;;;9.20;88.40;;;9.58;64.98;97483.00;4968962;28;20047;-44
2021/10/29 00:14:46;;;;;;;15.20;10.03;;;9.10;88.70;;;9.55;64.82;97491.28;4968522;28;20053;-44
2021/10/29 00:17:13;;;;;;;13.70;10.40;;;9.10;89.20;;;9.50;65.31;97480.28;4967060;28;20058;-45
2021/10/29 00:19:41;;;;;;;13.13;9.50;;;9.10;90.40;;;9.45;65.19;97484.25;4967952;28;20058;-45
2021/10/29 00:22:09;;;;;;;15.53;10.53;;;9.00;89.30;;;9.43;65.02;97486.22;4968207;28;20047;-47
2021/10/29 00:24:38;;;;;;;15.47;10.07;;;9.00;89.30;;;9.41;65.12;97480.25;4967686;28;20086;-44
2021/10/29 00:27:06;;;;;;;16.37;10.43;;;9.00;89.00;;;9.41;64.84;97476.75;4968255;28;20062;-44
2021/10/29 00:29:34;;;;;;;14.63;10.43;;;9.00;88.90;;;9.41;64.89;97476.75;4968381;28;20061;-44
2021/10/29 00:32:03;;;;;;;14.90;9.63;;;9.00;88.80;;;9.38;64.86;97474.41;4967358;28;20062;-44
2021/10/29 00:34:31;;;;;;;13.57;10.63;;;9.00;88.70;;;9.36;65.17;97479.03;4967893;28;20058;-48
2021/10/29 00:36:59;;;;;;;12.80;9.53;;;9.00;88.80;;;9.34;65.03;97481.03;4968107;28;20067;-45
2021/10/29 00:39:27;;;;;;;12.40;9.47;;;8.90;88.70;;;9.32;65.06;97470.56;4968083;28;20226;-43
2021/10/29 00:41:55;;;;;;;13.37;9.47;;;8.90;88.60;;;9.27;65.80;97470.22;4967547;28;20047;-45
2021/10/29 00:44:25;;;;;;;14.10;9.87;;;9.00;89.50;;;9.30;65.70;97463.75;4968748;28;20046;-44
2021/10/29 00:46:53;;;;;;;14.33;9.10;;;9.10;90.20;;;9.33;65.87;97468.75;4967506;28;20058;-46
2021/10/29 00:49:21;;;;;;;12.97;8.90;;;9.20;90.20;;;9.37;65.99;97470.94;4966431;28;20049;-44
2021/10/29 00:51:50;;;;;;;14.23;9.37;;;9.20;90.10;;;9.39;66.00;97473.44;4968330;28;20038;-49
2021/10/29 00:54:20;;;;;;;13.77;10.10;;;9.30;90.30;;;9.39;66.13;97468.94;4968042;28;20347;-46
2021/10/29 00:56:49;;;;;;;13.83;10.03;;;9.20;90.20;;;9.43;66.37;97466.81;4967163;28;20046;-45
2021/10/29 00:59:18;;;;;;;14.70;12.13;;;9.30;90.60;;;9.44;66.32;97469.31;4967650;28;20246;-44
2021/10/29 01:01:48;;;;;;;14.93;9.87;;;9.30;90.60;;;9.45;66.32;97470.97;4967309;28;20055;-45
2021/10/29 01:04:16;;;;;;;17.67;11.83;;;9.30;90.80;;;9.47;66.21;97468.16;4968630;28;20073;-44
2021/10/29 01:06:45;;;;;;;16.17;10.90;;;9.30;91.10;;;9.49;66.28;97466.16;4967358;28;20067;-46
2021/10/29 01:09:13;;;;;;;13.90;9.83;;;9.30;91.20;;;9.49;66.51;97468.00;4967346;28;20055;-46
2021/10/29 01:11:43;;;;;;;15.07;10.53;;;9.30;91.10;;;9.51;66.05;97479.31;4967470;28;20076;-45
2021/10/29 01:14:11;;;;;;;14.90;10.27;;;9.30;91.10;;;9.52;66.16;97473.84;4966778;28;20054;-44
2021/10/29 01:16:39;;;;;;;15.10;10.30;;;9.30;90.90;;;9.51;65.97;97476.66;4967871;28;20065;-46
2021/10/29 01:19:07;;;;;;;15.53;9.63;;;9.20;90.80;;;9.46;65.85;97466.50;4966560;28;20059;-45
2021/10/29 01:21:35;;;;;;;18.60;10.23;;;9.10;90.70;;;9.41;65.63;97468.78;4965672;28;20069;-44
2021/10/29 01:24:03;;;;;;;16.70;10.23;;;9.10;90.90;;;9.37;65.96;97470.94;4967514;28;20154;-45
2021/10/29 01:26:31;;;;;;;12.73;10.67;;;9.00;90.60;;;9.34;65.95;97470.41;4967591;28;20055;-46
2021/10/29 01:28:59;;;;;;;17.07;11.63;;;8.90;91.10;;;9.30;65.76;97471.72;4967185;28;20065;-46
2021/10/29 01:31:27;;;;;;;16.20;11.07;;;8.90;91.10;;;9.30;65.94;97469.06;4968144;28;20042;-47
2021/10/29 01:33:55;;;;;;;15.17;10.47;;;8.90;90.90;;;9.27;65.59;97464.91;4967155;28;20058;-44
2021/10/29 01:36:23;;;;;;;14.30;9.67;;;8.90;90.50;;;9.17;65.52;97475.63;4967833;28;20063;-44
2021/10/29 01:38:55;;;;;;;18.37;10.53;;;8.70;89.80;;;9.11;65.59;97472.75;4966762;28;20059;-44
2021/10/29 01:41:23;;;;;;;16.03;11.50;;;8.60;90.70;;;9.06;65.52;97470.56;4966693;28;20243;-44
2021/10/29 01:43:50;;;;;;;15.47;10.73;;;8.60;91.00;;;9.02;65.68;97472.72;4964065;28;20067;-45
2021/10/29 01:46:19;;;;;;;15.17;9.90;;;8.60;90.90;;;8.97;65.53;97463.53;4963848;28;20369;-45
2021/10/29 01:48:50;;;;;;;15.63;10.17;;;8.50;90.60;;;8.94;65.84;97469.19;4966297;28;20061;-45
2021/10/29 01:51:19;;;;;;;13.30;9.50;;;8.50;91.00;;;8.93;65.64;97472.81;4966474;28;20446;-44
2021/10/29 01:53:47;;;;;;;12.93;9.27;;;8.50;91.00;;;8.90;65.84;97473.09;4965913;28;20215;-45
2021/10/29 01:56:16;;;;;;;14.73;10.10;;;8.40;91.30;;;8.83;65.82;97465.75;4965310;28;20054;-44
2021/10/29 01:58:45;;;;;;;14.37;9.93;;;8.40;91.00;;;8.81;65.63;97465.09;4965532;28;20050;-44
2021/10/29 02:01:13;;;;;;;13.63;9.90;;;8.30;91.00;;;8.78;65.67;97460.09;4966331;28;20062;-44
2021/10/29 02:03:41;;;;;;;15.27;10.37;;;8.30;90.80;;;8.78;65.81;97461.91;4967939;28;20251;-44
2021/10/29 02:06:09;;;;;;;21.93;14.77;;;8.30;90.40;;;8.76;65.48;97455.91;4968117;28;20058;-46
2021/10/29 02:08:37;;;;;;;20.90;14.03;;;8.30;90.00;;;8.74;65.37;97445.44;4967298;28;20062;-48
2021/10/29 02:11:05;;;;;;;15.33;11.10;;;8.30;90.10;;;8.72;65.65;97450.06;4966785;28;20061;-44
2021/10/29 02:13:33;;;;;;;14.67;10.27;;;8.30;90.10;;;8.73;65.49;97442.97;4966219;28;20253;-44
2021/10/29 02:16:01;;;;;;;13.60;9.67;;;8.30;89.70;;;8.70;65.37;97444.09;4965577;28;20047;-49
2021/10/29 02:18:29;;;;;;;17.03;9.97;;;8.30;89.50;;;8.70;65.45;97444.09;4966460;28;20062;-45
2021/10/29 02:20:57;;;;;;;14.93;9.97;;;8.30;89.60;;;8.70;65.54;97437.97;4966301;28;20230;-45
2021/10/29 02:23:27;;;;;;;12.93;9.33;;;8.30;90.30;;;8.71;65.41;97434.31;4965949;28;20065;-48
2021/10/29 02:25:56;;;;;;;14.23;9.53;;;8.40;89.80;;;8.71;65.80;97437.81;4966042;28;20066;-48
2021/10/29 02:28:24;;;;;;;11.80;8.33;;;8.40;89.70;;;8.70;65.76;97428.16;4966212;28;20063;-46
2021/10/29 02:30:52;;;;;;;13.10;9.60;;;8.30;89.70;;;8.66;65.53;97427.63;4966128;28;20051;-47
2021/10/29 02:33:21;;;;;;;15.83;9.03;;;8.30;89.80;;;8.65;65.77;97431.28;4966886;28;20045;-46
2021/10/29 02:35:49;;;;;;;13.37;9.17;;;8.30;90.20;;;8.65;65.55;97433.13;4965916;28;20477;-47
2021/10/29 02:38:18;;;;;;;12.40;8.40;;;8.30;89.90;;;8.65;65.58;97430.47;4965751;28;20273;-47
2021/10/29 02:40:46;;;;;;;13.20;9.40;;;8.30;89.70;;;8.64;65.60;97423.47;4965615;28;20074;-47
2021/10/29 02:43:14;;;;;;;10.83;7.50;;;8.30;89.60;;;8.62;65.71;97428.94;4965643;28;20065;-46
2021/10/29 02:45:42;;;;;;;14.57;10.53;;;8.30;89.70;;;8.60;65.54;97422.94;4966678;28;20069;-47
2021/10/29 02:48:10;;;;;;;13.33;8.40;;;8.20;89.60;;;8.59;65.48;97426.59;4965551;28;20241;-48
2021/10/29 02:50:38;;;;;;;13.73;9.40;;;8.20;89.50;;;8.59;65.55;97425.78;4966925;28;20062;-46
2021/10/29 02:53:08;;;;;;;11.37;8.77;;;8.20;89.60;;;8.59;65.63;97423.13;4966576;28;20441;-46
2021/10/29 02:55:36;;;;;;;12.67;9.27;;;8.20;89.50;;;8.59;65.55;97429.25;4968850;28;20057;-48
2021/10/29 02:58:04;;;;;;;14.67;9.13;;;8.20;89.70;;;8.58;65.55;97424.09;4969503;28;20049;-48
2021/10/29 03:00:32;;;;;;;13.23;8.67;;;8.20;89.70;;;8.59;65.65;97434.56;4970441;28;20069;-47
2021/10/29 03:03:01;;;;;;;16.57;10.03;;;8.20;89.60;;;8.55;65.45;97435.00;4969623;28;20060;-45
2021/10/29 03:05:29;;;;;;;13.77;9.13;;;8.20;89.60;;;8.54;65.70;97438.66;4969344;28;20065;-46
2021/10/29 03:07:57;;;;;;;13.23;9.47;;;8.20;89.50;;;8.52;65.54;97438.81;4970515;28;20053;-50
2021/10/29 03:10:24;;;;;;;14.20;9.93;;;8.10;89.50;;;8.48;65.46;97440.94;4967242;28;20050;-48
2021/10/29 03:12:52;;;;;;;12.57;9.27;;;8.10;89.30;;;8.44;65.54;97439.56;4968424;28;20050;-47
2021/10/29 03:15:20;;;;;;;16.60;10.00;;;8.10;89.20;;;8.42;65.17;97438.06;4969487;28;20042;-47
2021/10/29 03:17:48;;;;;;;14.63;9.40;;;8.00;89.00;;;8.36;65.17;97436.00;4969530;28;20050;-46
2021/10/29 03:20:16;;;;;;;18.00;11.87;;;7.90;89.00;;;8.28;65.31;97432.28;4967968;28;20165;-46
2021/10/29 03:22:44;;;;;;;30.00;21.63;;;7.80;89.70;;;8.27;65.48;97437.72;4969384;28;20077;-46
2021/10/29 03:25:12;;;;;;;17.87;14.47;;;7.80;90.00;;;8.24;65.34;97438.88;4969145;28;20057;-45
2021/10/29 03:27:40;;;;;;;18.47;12.43;;;7.80;90.10;;;8.20;65.27;97439.31;4967810;28;20252;-45
2021/10/29 03:30:10;;;;;;;13.50;9.63;;;7.70;89.70;;;8.16;65.25;97430.00;4968836;28;20055;-44
2021/10/29 03:32:38;;;;;;;12.47;8.53;;;7.60;89.30;;;8.10;65.41;97423.47;4969597;28;20055;-44
2021/10/29 03:35:06;;;;;;;12.30;8.57;;;7.60;90.10;;;8.08;65.54;97426.31;4967900;28;20065;-45
2021/10/29 03:43:17;;;;;;;16.57;13.17;;;7.60;89.30;;;7.92;65.26;97420.81;4968889;28;20065;-46
2021/10/29 03:45:51;;;;;;;15.37;10.30;;;7.40;89.70;;;7.88;65.53;97422.09;4970588;28;20500;-44
2021/10/29 03:48:28;;;;;;;;;;;7.40;90.60;;;7.84;65.45;97420.75;4969593;28;20229;-45
2021/10/29 03:54:06;;;;;;;14.55;10.55;;;7.40;90.40;;;7.87;65.53;97421.28;4968440;28;20047;-46
2021/10/29 03:56:26;;;;;;;14.85;11.38;;;7.40;89.80;;;7.85;65.48;97417.94;4967755;28;20390;-46
2021/10/29 03:58:57;;;;;;;14.97;10.83;;;7.40;89.40;;;7.81;65.34;97408.63;4969145;28;20077;-45
2021/10/29 04:01:25;;;;;;;14.77;11.07;;;7.30;90.10;;;7.78;65.30;97408.91;4969471;28;20345;-45
2021/10/29 04:03:53;;;;;;;10.93;9.50;;;7.30;90.10;;;7.78;65.63;97408.09;4968876;28;20059;-49
2021/10/29 04:06:22;;;;;;;14.03;9.77;;;7.30;90.00;;;7.79;65.60;97417.69;4967154;28;20054;-46
2021/10/29 04:08:49;;;;;;;14.93;9.57;;;7.40;90.10;;;7.79;65.47;97421.19;4967852;28;20073;-45
2021/10/29 04:11:23;;;;;;;14.87;10.27;;;7.40;90.20;;;7.80;65.71;97422.84;4968670;28;20058;-45
2021/10/29 04:13:51;;;;;;;15.80;11.52;;;7.40;90.00;;;7.75;65.57;97416.31;4968298;28;20054;-45
2021/10/29 04:16:19;;;;;;;13.53;10.10;;;7.30;90.40;;;7.75;65.74;97416.31;4969324;28;20264;-45
2021/10/29 04:18:47;;;;;;;13.73;9.83;;;7.30;90.30;;;7.76;66.02;97423.31;4967782;28;20053;-45
2021/10/29 04:21:15;;;;;;;13.83;11.23;;;7.40;90.30;;;7.74;65.76;97419.97;4968389;28;20242;-45
2021/10/29 04:23:43;;;;;;;13.07;10.53;;;7.30;90.30;;;7.76;66.07;97420.66;4968746;28;20063;-45
2021/10/29 04:26:11;;;;;;;16.87;10.90;;;7.40;90.40;;;7.78;65.75;97414.22;4968680;28;20073;-47
2021/10/29 04:28:42;;;;;;;12.33;8.97;;;7.40;89.80;;;7.77;65.92;97412.53;4968894;28;20052;-44
2021/10/29 04:31:18;;;;;;;15.23;9.37;;;7.40;89.60;;;7.79;65.51;97418.56;4966743;28;20248;-46
2021/10/29 04:33:47;;;;;;;13.50;8.63;;;7.50;89.60;;;7.81;65.69;97418.38;4967742;28;20067;-46
2021/10/29 04:36:16;;;;;;;12.43;9.00;;;7.50;89.20;;;7.80;65.70;97424.69;4967972;28;20075;-46
2021/10/29 04:38:48;;;;;;;13.93;10.40;;;7.40;89.20;;;7.82;65.69;97425.38;4965541;28;20055;-48
2021/10/29 04:41:16;;;;;;;14.40;10.30;;;7.40;89.20;;;7.81;65.48;97424.53;4967417;28;20069;-46
2021/10/29 04:43:44;;;;;;;17.50;10.43;;;7.50;89.20;;;7.81;65.55;97415.72;4967559;28;20058;-46
2021/10/29 04:46:12;;;;;;;17.30;11.67;;;7.50;89.20;;;7.80;65.33;97411.44;4967148;28;20069;-46
2021/10/29 04:48:40;;;;;;;19.67;13.70;;;7.40;88.80;;;7.76;65.40;97410.06;4966926;28;20069;-46
2021/10/29 04:51:08;;;;;;;36.30;25.30;;;7.30;88.60;;;7.70;65.09;97403.53;4967666;28;20252;-46
2021/10/29 04:53:36;;;;;;;27.00;19.63;;;7.20;88.30;;;7.62;65.12;97400.81;4967037;28;20054;-45
2021/10/29 04:56:04;;;;;;;24.07;16.27;;;7.10;88.70;;;7.54;65.07;97390.09;4969020;28;20053;-45
2021/10/29 04:58:32;;;;;;;19.73;15.10;;;7.00;88.60;;;7.47;65.33;97389.88;4968036;28;20061;-46
2021/10/29 05:01:00;;;;;;;20.00;13.73;;;7.00;89.20;;;7.46;65.31;97393.47;4966936;28;20063;-46
2021/10/29 05:03:28;;;;;;;12.80;11.10;;;7.00;89.40;;;7.47;65.33;97396.00;4965829;28;20061;-45
2021/10/29 05:05:56;;;;;;;15.80;9.83;;;7.00;90.00;;;7.48;65.75;97396.81;4968106;28;20211;-45
2021/10/29 05:08:24;;;;;;;17.70;11.33;;;7.00;89.90;;;7.48;65.83;97399.47;4967330;28;20066;-46
2021/10/29 05:10:52;;;;;;;19.20;12.30;;;7.00;90.60;;;7.48;65.85;97391.50;4966995;28;20059;-49
2021/10/29 05:13:21;;;;;;;18.90;10.73;;;7.00;90.90;;;7.46;65.77;97389.03;4967958;28;20262;-45
2021/10/29 05:15:49;;;;;;;18.43;11.87;;;6.90;90.80;;;7.44;65.73;97392.78;4966947;28;20065;-47
2021/10/29 05:18:18;;;;;;;22.20;12.67;;;6.90;90.80;;;7.38;65.95;97391.56;4967868;28;20345;-46
2021/10/29 05:20:46;;;;;;;18.70;12.03;;;6.90;91.10;;;7.29;65.78;97400.41;4965856;28;20055;-45
2021/10/29 05:23:14;;;;;;;20.13;12.30;;;6.70;91.20;;;7.23;65.85;97399.19;4967348;28;20060;-47
2021/10/29 05:25:42;;;;;;;17.17;11.27;;;6.70;91.70;;;7.20;65.98;97402.13;4965560;28;20067;-46
2021/10/29 05:28:10;;;;;;;12.27;8.63;;;6.70;91.80;;;7.18;65.74;97401.44;4966889;28;20054;-46
2021/10/29 05:30:38;;;;;;;15.27;10.23;;;6.70;91.40;;;7.20;66.21;97403.94;4966567;28;20047;-45
2021/10/29 05:33:06;;;;;;;12.27;9.17;;;6.80;91.50;;;7.22;65.88;97388.72;4967166;28;20055;-47
2021/10/29 05:35:34;;;;;;;13.70;9.30;;;6.80;91.10;;;7.25;66.00;97385.78;4965491;28;20057;-45
2021/10/29 05:38:03;;;;;;;15.30;11.43;;;6.80;90.90;;;7.26;66.04;97382.16;4968122;28;20062;-47
2021/10/29 05:40:31;;;;;;;11.77;9.13;;;6.90;90.70;;;7.26;65.92;97383.00;4966667;28;20280;-46
2021/10/29 05:42:59;;;;;;;12.20;9.10;;;6.90;90.50;;;7.29;65.89;97389.81;4967067;28;20058;-45
2021/10/29 05:45:27;;;;;;;14.90;10.30;;;6.90;90.50;;;7.29;65.85;97384.53;4967736;28;20054;-45
2021/10/29 05:48:01;;;;;;;14.07;10.37;;;6.90;90.10;;;7.28;65.94;97385.50;4967602;28;20510;-45
2021/10/29 05:50:29;;;;;;;;;;;6.80;90.10;;;7.23;65.93;97380.66;4968582;28;20073;-45
2021/10/29 05:52:58;;;;;;;13.93;8.97;;;6.90;89.90;;;7.24;65.40;97381.47;4965078;28;19932;-45
2021/10/29 05:55:26;;;;;;;12.70;10.77;;;6.80;89.80;;;7.22;65.57;97381.63;4967000;28;20058;-45
2021/10/29 05:57:54;;;;;;;12.70;9.00;;;6.80;89.60;;;7.18;65.45;97384.72;4966360;28;20047;-46
2021/10/29 06:00:27;;;;;;;13.97;9.27;;;6.80;89.60;;;7.18;65.83;97382.91;4966500;28;20050;-45
2021/10/29 06:03:05;;;;;;;13.15;8.55;;;6.80;89.30;;;7.20;65.75;97388.03;4965300;28;20047;-46
2021/10/29 06:05:33;;;;;;;12.90;8.53;;;6.80;89.30;;;7.19;65.75;97386.38;4965073;28;20064;-45
2021/10/29 06:08:02;;;;;;;11.53;9.00;;;6.80;89.00;;;7.16;65.56;97392.78;4967994;28;20273;-49
2021/10/29 06:10:30;;;;;;;15.27;10.20;;;6.80;89.20;;;7.15;65.68;97391.13;4965277;28;20054;-47
2021/10/29 06:12:59;;;;;;;11.73;8.73;;;6.70;88.80;;;7.15;65.13;97392.94;4966058;28;20053;-47
2021/10/29 06:15:27;;;;;;;14.00;8.73;;;6.70;88.80;;;7.12;65.41;97402.00;4964631;28;20047;-49
2021/10/29 06:17:55;;;;;;;14.47;10.17;;;6.60;88.50;;;7.08;64.96;97400.63;4966660;28;20069;-45
2021/10/29 06:20:23;;;;;;;15.90;9.43;;;6.60;88.70;;;7.06;65.08;97397.31;4966564;28;20058;-47
2021/10/29 06:22:53;;;;;;;18.50;12.87;;;6.60;88.60;;;7.05;64.89;97403.56;4965127;28;20061;-47
2021/10/29 06:25:25;;;;;;;20.10;10.80;;;6.60;88.60;;;7.02;65.01;97399.41;4966071;28;20061;-47
2021/10/29 06:28:13;;;;;;;15.47;11.53;;;6.60;88.70;;;7.01;64.84;97404.84;4965605;28;20076;-47
2021/10/29 06:30:45;;;;;;;15.67;11.07;;;6.60;88.30;;;7.00;64.99;97403.16;4964490;28;20368;-46
2021/10/29 06:33:22;;;;;;;15.67;11.30;;;6.60;88.60;;;7.00;65.13;97405.78;4966055;28;20361;-49
2021/10/29 06:35:54;;;;;;;11.63;9.33;;;6.60;88.40;;;6.99;65.23;97397.03;4967125;28;20043;-48
2021/10/29 06:38:22;;;;;;;14.83;9.70;;;6.60;88.00;;;6.96;65.19;97394.69;4966955;28;20058;-47
2021/10/29 06:40:51;;;;;;;13.87;10.37;;;6.50;88.20;;;6.96;65.15;97389.41;4965732;28;20057;-47
2021/10/29 06:46:24;;;;;;;14.97;8.80;;;6.60;88.70;;;6.97;65.39;97382.28;4966570;28;20074;-46
2021/10/29 07:02:32;;;;;;;9.93;7.83;;;6.60;87.80;;;7.01;64.83;97412.78;4965656;28;20063;-48
2021/10/29 07:41:00;;;;;;;18.17;10.90;;;6.80;88.30;;;7.22;65.40;97412.56;4971093;28;20244;-47
2021/10/29 07:43:35;;;;;;;16.80;10.87;;;6.90;88.60;;;7.28;65.84;97410.16;4972946;28;20245;-46
2021/10/29 07:46:06;;;;;;;20.20;12.33;;;7.00;88.70;;;7.34;65.88;97415.84;4979592;28;20252;-46
2021/10/29 07:48:35;;;;;;;17.30;11.77;;;7.00;88.70;;;7.38;65.90;97407.47;4984455;28;20042;-46
2021/10/29 07:51:05;;;;;;;14.80;10.80;;;7.10;89.00;;;7.42;65.54;97400.88;4984177;28;20061;-46
2021/10/29 07:53:35;;;;;;;20.03;12.33;;;7.10;89.10;;;7.46;66.05;97399.63;4980903;28;20125;-46
2021/10/29 07:56:06;;;;;;;17.77;11.80;;;7.20;89.30;;;7.51;65.99;97401.00;4983846;28;20059;-45
2021/10/29 07:58:36;;;;;;;19.17;11.87;;;7.30;89.60;;;7.54;65.83;97400.69;4983422;28;20046;-47
2021/10/29 08:01:06;;;;;;;18.10;11.40;;;7.30;89.70;;;7.51;65.81;97398.34;4981980;28;20050;-46
2021/10/29 08:03:34;;;;;;;16.17;10.67;;;7.30;90.00;;;7.54;66.00;97400.69;4979640;28;20132;-47
2021/10/29 08:06:02;;;;;;;18.93;11.33;;;7.30;90.20;;;7.60;66.09;97392.13;4978548;28;20054;-45
2021/10/29 08:08:31;;;;;;;16.07;11.07;;;7.30;90.50;;;7.64;66.40;97388.25;4982909;28;20047;-45
2021/10/29 08:10:59;;;;;;;18.17;12.40;;;7.40;90.60;;;7.70;66.34;97395.59;4983501;28;20069;-46
2021/10/29 08:13:28;;;;;;;19.90;12.27;;;7.40;90.70;;;7.75;66.52;97403.09;4968346;28;20062;-47
2021/10/29 08:15:59;;;;;;;15.20;12.13;;;7.50;90.80;;;7.79;66.60;97394.69;4980668;28;20053;-46
2021/10/29 08:18:27;;;;;;;17.03;12.90;;;7.60;91.20;;;7.85;66.56;97395.88;4984309;28;20265;-48
2021/10/29 08:20:56;;;;;;;20.27;12.37;;;7.70;91.50;;;7.92;66.90;97407.56;4983892;28;20066;-47
2021/10/29 08:23:25;;;;;;;20.10;13.03;;;7.70;91.40;;;7.98;66.73;97403.47;4981420;28;20061;-46
2021/10/29 08:25:53;;;;;;;18.83;12.30;;;7.80;91.60;;;8.02;66.92;97407.50;4980004;28;20057;-46
2021/10/29 08:28:21;;;;;;;18.37;12.20;;;7.90;91.70;;;8.07;67.16;97405.25;4983879;28;20047;-47
2021/10/29 08:30:51;;;;;;;16.83;11.20;;;7.90;91.60;;;8.13;67.07;97398.50;4984342;28;20054;-47
2021/10/29 08:33:21;;;;;;;17.77;12.30;;;8.00;91.70;;;8.17;67.09;97394.56;4983872;28;20039;-48
2021/10/29 08:35:50;;;;;;;19.63;12.00;;;8.00;92.10;;;8.23;67.19;97386.81;4983865;28;20047;-47
2021/10/29 08:38:21;;;;;;;18.10;11.53;;;8.10;92.20;;;8.30;67.19;97384.41;4984192;28;20054;-47
2021/10/29 08:40:50;;;;;;;18.30;11.50;;;8.20;92.30;;;8.39;67.61;97387.94;4982482;28;20055;-50
2021/10/29 08:43:19;;;;;;;17.87;9.93;;;8.30;92.50;;;8.45;67.24;97385.53;4983040;28;20357;-48
2021/10/29 08:45:48;;;;;;;16.63;9.63;;;8.40;92.70;;;8.53;67.65;97381.25;4981427;28;20054;-45
2021/10/29 08:48:16;;;;;;;17.23;10.40;;;8.50;92.90;;;8.62;67.72;97388.31;4984012;28;20047;-49
2021/10/29 08:50:44;;;;;;;14.10;10.97;;;8.60;92.70;;;8.70;67.70;97395.50;4982890;28;20059;-50
2021/10/29 08:53:12;;;;;;;16.60;10.53;;;8.70;92.90;;;8.76;67.33;97395.72;4983905;28;20049;-48
2021/10/29 08:55:40;;;;;;;16.20;10.20;;;8.70;93.00;;;8.82;67.71;97395.09;4983048;28;20050;-47
2021/10/29 08:58:09;;;;;;;15.23;9.33;;;8.80;93.00;;;8.90;67.67;97401.41;4981809;28;20061;-46
2021/10/29 09:00:41;;;;;;;11.57;9.30;;;8.90;93.00;;;8.94;67.69;97390.34;4978413;28;20057;-47
2021/10/29 09:03:27;;;;;;;13.80;9.43;;;9.00;92.90;;;9.01;67.67;97378.09;4962561;28;20537;-46
2021/10/29 09:08:52;;;;;;;19.13;10.82;;;9.10;92.80;;;9.11;67.65;97383.31;4966986;28;20089;-47
2021/10/29 09:34:04;;;;;;;14.73;8.77;;;9.40;92.30;;;9.43;67.46;97355.22;4946853;28;20253;-48
2021/10/29 09:36:44;;;;;;;15.10;10.63;;;9.40;92.40;;;9.49;67.49;97359.88;4949165;29;20053;-46
2021/10/29 09:39:20;;;;;;;14.13;9.13;;;9.40;92.40;;;9.56;67.83;97363.56;4946218;28;20059;-48
2021/10/29 09:42:09;;;;;;;14.03;9.63;;;9.50;92.30;;;9.62;67.68;97367.41;4946965;29;20051;-47
2021/10/29 09:44:42;;;;;;;12.73;10.47;;;9.60;92.30;;;9.69;67.90;97371.06;4948016;29;20055;-46
2021/10/29 09:47:12;;;;;;;15.65;10.25;;;9.70;92.20;;;9.75;67.63;97369.56;4947423;29;20047;-48
2021/10/29 09:49:50;;;;;;;15.27;10.57;;;9.80;92.20;;;9.81;67.78;97367.13;4946198;29;20058;-45
2021/10/29 09:57:27;;;;;;;14.82;10.40;;;10.00;92.30;;;10.00;67.69;97362.47;4948902;28;20059;-43
2021/10/29 09:59:58;;;;;;;14.47;11.23;;;10.00;92.30;;;10.05;67.62;97376.94;4947320;28;20059;-47
2021/10/29 10:02:29;;;;;;;13.27;9.73;;;10.10;92.20;;;10.10;67.63;97365.84;4945024;28;20063;-49
2021/10/29 10:04:59;;;;;;;13.83;10.00;;;10.20;92.20;;;10.17;67.78;97368.66;4946059;28;20476;-47
2021/10/29 10:07:35;;;;;;;13.73;10.83;;;10.20;92.30;;;10.22;68.22;97361.00;4946736;29;20265;-50
2021/10/29 10:10:11;;;;;;;15.13;11.20;;;10.20;92.40;;;10.28;67.84;97370.16;4947792;28;20125;-51
2021/10/29 10:12:45;;;;;;;13.60;10.97;;;10.30;92.30;;;10.32;68.03;97364.38;4945575;29;20043;-47
2021/10/29 10:15:14;;;;;;;16.13;11.27;;;10.40;92.40;;;10.38;67.87;97368.19;4947875;28;20039;-47
2021/10/29 10:17:43;;;;;;;17.97;11.30;;;10.40;92.20;;;10.42;67.81;97365.00;4948296;28;20058;-48
2021/10/29 10:20:11;;;;;;;14.90;10.90;;;10.50;92.40;;;10.48;68.07;97374.16;4947780;29;20051;-46
2021/10/29 10:22:45;;;;;;;15.52;11.65;;;10.60;92.40;;;10.52;68.38;97359.53;4947025;29;20050;-48
2021/10/29 10:45:18;;;;;;;18.20;13.00;;;11.20;92.80;;;11.07;68.48;97341.09;4946720;28;20059;-46
2021/10/29 10:47:55;;;;;;;17.63;11.93;;;11.20;92.90;;;11.11;68.19;97337.09;4948015;29;20485;-46
2021/10/29 10:50:31;;;;;;;13.93;10.63;;;11.20;92.70;;;11.17;68.04;97336.44;4946539;29;20057;-49
2021/10/29 10:53:11;;;;;;;15.60;11.90;;;11.30;92.80;;;11.22;68.25;97334.06;4945668;28;20047;-46
2021/10/29 11:04:44;;;;;;;20.83;12.50;;;11.40;92.80;;;11.39;68.71;97314.31;4966828;28;20184;-47
2021/10/29 11:10:25;;;;;;;18.80;12.55;;;11.60;93.00;;;11.51;68.17;97308.59;4963126;28;20559;-47
2021/10/29 11:12:53;;;;;;;19.73;12.32;;;11.60;92.80;;;11.58;68.46;97312.22;4965273;28;20479;-49
2021/10/29 11:15:27;;;;;;;16.70;11.77;;;11.70;93.10;;;11.63;68.36;97299.19;4955986;28;20058;-47
2021/10/29 11:18:16;;;;;;;16.95;13.85;;;11.80;93.10;;;11.68;68.52;97299.50;4968434;28;20068;-47
2021/10/29 11:20:49;;;;;;;18.23;12.10;;;11.80;92.90;;;11.73;68.25;97297.16;4968221;28;20067;-47
2021/10/29 11:23:34;;;;;;;22.30;13.73;;;11.90;92.90;;;11.78;68.18;97288.59;4969578;28;20059;-46
2021/10/29 11:26:21;;;;;;;15.80;13.00;;;11.90;92.80;;;11.82;68.37;97276.56;4970776;28;20065;-47
2021/10/29 11:28:52;;;;;;;18.15;12.88;;;11.90;92.80;;;11.88;68.19;97269.69;4968238;28;20062;-49
2021/10/29 11:31:34;;;;;;;18.98;12.23;;;12.00;92.60;;;11.93;68.30;97262.84;4967289;28;20051;-47
2021/10/29 11:34:11;;;;;;;16.70;12.55;;;12.10;92.70;;;12.00;68.21;97262.97;4969763;28;20053;-49
2021/10/29 11:36:47;;;;;;;16.02;12.45;;;12.10;92.50;;;12.07;68.22;97265.75;4969266;28;20067;-49
2021/10/29 11:39:17;;;;;;;23.23;13.43;;;12.20;92.40;;;12.13;68.25;97257.00;4968225;28;20695;-45
2021/10/29 11:41:47;;;;;;;15.52;11.80;;;12.30;92.40;;;12.22;68.42;97245.25;4969193;28;20051;-48
2021/10/29 11:44:19;;;;;;;18.20;12.90;;;12.40;92.30;;;12.30;68.33;97247.03;4968306;28;20367;-46
2021/10/29 11:46:49;;;;;;;15.48;11.90;;;12.50;92.20;;;12.39;68.38;97245.94;4969582;28;20077;-46
2021/10/29 11:49:30;;;;;;;24.52;12.95;;;12.60;92.20;;;12.47;68.01;97250.38;4968709;28;20280;-48
2021/10/29 11:52:03;;;;;;;17.65;11.60;;;12.70;91.80;;;12.53;67.98;97238.94;4968813;28;20074;-49
2021/10/29 11:54:38;;;;;;;19.77;12.50;;;12.70;91.60;;;12.60;67.84;97250.53;4968060;28;20069;-46
2021/10/29 12:07:43;;;;;;;15.35;10.45;;;13.10;90.60;;;12.96;67.47;97218.56;4968961;28;20253;-49
2021/10/29 12:10:18;;;;;;;16.25;12.05;;;13.10;90.20;;;13.03;67.32;97207.13;4968835;28;20054;-47
2021/10/29 12:12:53;;;;;;;13.85;10.95;;;13.20;89.80;;;13.12;67.26;97206.00;4966315;28;20352;-46
2021/10/29 12:15:25;;;;;;;15.02;11.60;;;13.30;89.70;;;13.19;67.25;97209.59;4968038;28;20582;-47
2021/10/29 12:18:03;;;;;;;15.38;12.27;;;13.40;89.40;;;13.26;66.93;97207.81;4969135;28;20246;-47
2021/10/29 12:20:49;;;;;;;14.75;11.20;;;13.50;88.80;;;13.33;66.56;97205.25;4968414;28;20067;-48
2021/10/29 12:23:28;;;;;;;14.80;10.48;;;13.60;88.20;;;13.41;66.79;97206.97;4968378;28;20054;-46
2021/10/29 12:26:04;;;;;;;15.75;11.27;;;13.70;88.50;;;13.50;66.61;97214.69;4967494;28;20062;-47
2021/10/29 12:34:11;;;;;;;13.95;11.38;;;13.90;87.70;;;13.72;65.92;97203.97;4966762;28;20051;-46
2021/10/29 12:39:19;;;;;;;18.52;10.13;;;14.00;86.00;;;13.88;65.60;97200.19;4968362;28;20051;-47
2021/10/29 13:01:56;;;;;;;11.65;9.60;;;14.70;80.00;;;14.42;62.90;97175.47;4967791;28;20042;-48
2021/10/29 13:04:46;;;;;;;12.93;9.13;;;14.70;80.30;;;14.49;62.82;97167.50;4967193;28;20055;-50
2021/10/29 13:07:14;;;;;;;12.80;9.63;;;14.80;78.10;;;14.56;62.77;97158.50;4968255;28;20051;-49
2021/10/29 13:09:42;;;;;;;12.82;10.40;;;14.80;80.50;;;14.63;62.35;97157.69;4965620;28;20064;-48
2021/10/29 13:14:45;;;;;;;13.77;10.20;;;15.00;79.90;;;14.72;62.00;97146.63;4967334;28;20384;-51
2021/10/29 13:17:19;;;;;;;14.25;10.80;;;15.10;79.40;;;14.77;61.88;97152.22;4971507;28;20317;-48
2021/10/29 13:28:18;;;;;;;15.27;10.80;;;15.20;78.30;;;15.01;61.33;97143.84;4971836;28;20134;-47